Terminal Aerodrome Forecast
Issued by NWS Jackson, MS

Current Version | Previous Version | Text Only | Print | Product List | Glossary On
Versions: 1 2 3 4 5 6 7 8 9 10 11 12 13 14 15
000
FTUS44 KJAN 300520
TAFGWO
TAF
KGWO 300520Z 3006/3106 21012KT P6SM SCT060 OVC080
     FM300800 24013G20KT P6SM VCTS BKN070CB OVC100
     FM300900 29012G18KT 4SM -TSRA BKN060CB OVC090
     FM301100 30010KT P6SM VCSH BKN050 OVC090
     FM301400 01008KT P6SM SCT200=

USA.gov is the U.S. government's official web portal to all federal, state and local government web resources and services.